Time;durP1;ratioP1;P1;durP2;ratioP2;P2;SDS_P1;SDS_P2;PMS_P1;PMS_P2;Temp;Humidity;BMP_temperature;BMP_pressure;BME280_temperature;BME280_humidity;BME280_pressure;Samples;Min_cycle;Max_cycle;Signal;HPM_P1;HPM_P2
2023/04/29 08:25:51;;;;;;;;;;;;;;;;;;6035840;23;21297;31
2023/04/29 09:24:23;;;;;;;;;;;;;;;;;;4880334;29;19983;-76
2023/04/29 09:26:49;;;;;;;;;;;;;;;;;;4900873;29;19923;-76
2023/04/29 09:29:15;;;;;;;;;;;;;;;;;;4900895;29;19946;-77
2023/04/29 09:31:41;;;;;;;;;;;;;;;;;;4901052;29;19962;-78
2023/04/29 09:34:07;;;;;;;;;;;;;;;;;;4899671;29;19927;-75
2023/04/29 09:36:55;;;;;;;;;;;;;;;;;;4900847;29;19920;-75
2023/04/29 09:39:22;;;;;;;;;;;;;;;;;;4900748;29;19956;-76
2023/04/29 09:41:53;;;;;;;;;;;;;;;;;;4900509;29;20507;-76
2023/04/29 09:44:19;;;;;;;;;;;;;;;;;;4900623;29;19923;-75
2023/04/29 09:46:54;;;;;;;;;;;;;;;;;;4914901;29;20285;-75
2023/04/29 09:49:23;;;;;;;;;;;;;;;;;;4900276;29;19926;-75
2023/04/29 09:51:56;;;;;;;;;;;;;;;;;;4899663;29;19974;-75
2023/04/29 09:54:22;;;;;;;;;;;;;;;;;;4904592;29;19929;-74
2023/04/29 09:56:49;;;;;;;;;;;;;;;;;;4913245;29;19969;-74
2023/04/29 09:59:15;;;;;;;;;;;;;;;;;;4899924;29;20387;-73
2023/04/29 10:01:40;;;;;;;;;;;;;;;;;;4909930;29;19926;-75
2023/04/29 10:04:07;;;;;;;;;;;;;;;;;;4918707;29;19923;-78
2023/04/29 10:06:33;;;;;;;;;;;;;;;;;;4918781;29;19919;-76
2023/04/29 10:08:59;;;;;;;;;;;;;;;;;;4918102;29;19926;-75
2023/04/29 10:11:25;;;;;;;;;;;;;;;;;;4899600;29;19923;-76
2023/04/29 10:13:51;;;;;;;;;;;;;;;;;;4899946;29;19966;-76
2023/04/29 10:16:19;;;;;;;;;;;;;;;;;;4899834;29;20322;-75
2023/04/29 10:18:51;;;;;;;;;;;;;;;;;;4900256;29;19926;-74
2023/04/29 10:21:17;;;;;;;;;;;;;;;;;;4899541;29;19919;-74
2023/04/29 10:23:43;;;;;;;;;;;;;;;;;;4886018;29;19931;-76
2023/04/29 10:26:11;;;;;;;;;;;;;;;;;;4919948;29;20377;-75
2023/04/29 10:28:38;;;;;;;15.80;13.70;;;;;;;;;;4937227;29;20381;-76
2023/04/29 10:31:07;;;;;;;18.10;14.55;;;;;;;;;;4936799;29;20555;-75
2023/04/29 10:33:34;;;;;;;20.13;16.27;;;;;;;;;;4936938;29;20023;-76
2023/04/29 10:36:01;;;;;;;19.10;15.00;;;;;;;;;;4924784;29;20115;-78
2023/04/29 10:38:39;;;;;;;17.70;14.75;;;;;;;;;;4918162;29;20387;-78
2023/04/29 10:41:09;;;;;;;17.92;14.45;;;;;;;;;;4918331;29;20028;-79
2023/04/29 10:43:35;;;;;;;16.13;13.05;;;;;;;;;;4917733;29;20034;-78
2023/04/29 10:46:15;;;;;;;19.27;16.50;;;;;;;;;;4917926;29;20111;-79
2023/04/29 10:48:42;;;;;;;19.40;15.35;;;;;;;;;;4918334;29;20039;-79
2023/04/29 10:51:08;;;;;;;21.80;15.00;;;;;;;;;;4918469;29;20063;-79
2023/04/29 10:53:34;;;;;;;16.65;14.07;;;;;;;;;;4917752;29;20043;-78
2023/04/29 10:56:11;;;;;;;18.10;15.95;;;;;;;;;;4918060;29;20039;-78
2023/04/29 10:58:44;;;;;;;21.67;15.10;;;;;;;;;;4917713;29;20088;-75
2023/04/29 11:01:11;;;;;;;20.15;15.95;;;;;;;;;;4917506;29;20070;-80
2023/04/29 11:03:58;;;;;;;20.88;16.13;;;;;;;;;;4917980;29;20032;-78
2023/04/29 11:06:40;;;;;;;18.02;15.85;;;;;;;;;;4917675;29;20028;-78
2023/04/29 11:09:13;;;;;;;19.42;16.38;;;;;;;;;;4917742;29;20522;-79
2023/04/29 11:11:43;;;;;;;17.83;14.30;;;;;;;;;;4917320;29;20458;-79
2023/04/29 11:14:12;;;;;;;23.88;17.83;;;;;;;;;;4917768;29;20092;-79
2023/04/29 11:16:47;;;;;;;21.10;17.25;;;;;;;;;;4917521;29;20051;-80
2023/04/29 11:19:14;;;;;;;26.67;17.60;;;;;;;;;;4917663;29;20039;-88
2023/04/29 11:21:40;;;;;;;19.50;16.75;;;;;;;;;;4917365;29;20028;-85
2023/04/29 11:24:06;;;;;;;22.67;17.08;;;;;;;;;;4900150;29;20058;-78
2023/04/29 11:26:34;;;;;;;20.27;17.35;;;;;;;;;;4917430;29;20036;-77
2023/04/29 11:29:00;;;;;;;18.13;15.83;;;;;;;;;;4917476;29;20107;-86
2023/04/29 11:31:29;;;;;;;19.55;16.08;;;;;;;;;;4906625;29;20124;-78
2023/04/29 11:33:55;;;;;;;18.52;14.15;;;;;;;;;;4924804;29;20494;-77
2023/04/29 11:36:20;;;;;;;20.45;16.67;;;;;;;;;;4923836;29;20036;-78
2023/04/29 11:38:46;;;;;;;21.15;16.35;;;;;;;;;;4926543;29;20123;-77
2023/04/29 11:41:12;;;;;;;17.95;15.15;;;;;;;;;;4908631;29;20567;-78
2023/04/29 11:43:40;;;;;;;18.50;15.63;;;;;;;;;;4926135;29;20115;-89
2023/04/29 11:46:13;;;;;;;18.40;15.70;;;;;;;;;;4927406;29;20070;-78
2023/04/29 11:48:46;;;;;;;18.75;14.85;;;;;;;;;;4913652;29;20072;-77
2023/04/29 11:51:12;;;;;;;13.07;11.32;;;;;;;;;;4906159;29;20484;-77
2023/04/29 11:53:38;;;;;;;19.65;15.65;;;;;;;;;;4914612;29;20024;-78
2023/04/29 11:56:03;;;;;;;16.73;12.88;;;;;;;;;;4926766;29;20032;-77
2023/04/29 11:58:29;;;;;;;16.02;12.70;;;;;;;;;;4930593;29;20031;-78
2023/04/29 12:00:57;;;;;;;16.80;13.23;;;;;;;;;;4928626;29;20034;-77
2023/04/29 12:03:22;;;;;;;17.65;13.73;;;;;;;;;;4927249;29;20107;-78
2023/04/29 12:05:55;;;;;;;13.02;10.80;;;;;;;;;;4920483;29;20063;-77
2023/04/29 12:08:21;;;;;;;18.63;14.48;;;;;;;;;;4921270;29;20036;-78
2023/04/29 12:10:48;;;;;;;16.13;13.85;;;;;;;;;;4929633;29;20027;-79
2023/04/29 12:13:18;;;;;;;16.23;13.43;;;;;;;;;;4924370;29;20036;-77
2023/04/29 12:15:49;;;;;;;15.23;12.55;;;;;;;;;;4912440;29;20027;-79
2023/04/29 12:18:17;;;;;;;14.88;11.73;;;;;;;;;;4926721;29;20032;-78
2023/04/29 12:20:42;;;;;;;13.70;11.48;;;;;;;;;;4920232;29;20518;-80
2023/04/29 12:23:17;;;;;;;15.70;13.15;;;;;;;;;;4937536;29;20055;-78
2023/04/29 12:25:48;;;;;;;16.58;13.23;;;;;;;;;;4938816;29;20055;-78
2023/04/29 12:28:16;;;;;;;11.73;9.68;;;;;;;;;;4938880;29;20034;-78
2023/04/29 12:30:44;;;;;;;17.60;12.57;;;;;;;;;;4912353;29;20121;-81
2023/04/29 12:33:11;;;;;;;12.60;10.17;;;;;;;;;;4919715;29;20384;-78
2023/04/29 12:35:36;;;;;;;17.42;13.95;;;;;;;;;;4919913;29;20115;-78
2023/04/29 12:38:02;;;;;;;12.00;9.93;;;;;;;;;;4920229;29;20499;-78
2023/04/29 12:40:27;;;;;;;16.80;13.07;;;;;;;;;;4920393;29;20024;-78
2023/04/29 12:42:53;;;;;;;18.13;12.80;;;;;;;;;;4919789;29;20049;-78
2023/04/29 12:45:30;;;;;;;15.13;10.45;;;;;;;;;;4919798;29;20365;-78
2023/04/29 12:47:56;;;;;;;14.88;12.38;;;;;;;;;;4930673;29;20479;-78
2023/04/29 12:50:33;;;;;;;14.88;12.90;;;;;;;;;;4938759;29;20035;-78
2023/04/29 12:52:59;;;;;;;13.85;11.80;;;;;;;;;;4930164;29;20034;-77
2023/04/29 12:55:25;;;;;;;14.90;10.05;;;;;;;;;;4919552;29;20039;-77
2023/04/29 12:57:50;;;;;;;10.88;8.93;;;;;;;;;;4919560;29;20028;-77
2023/04/29 13:00:17;;;;;;;15.63;12.63;;;;;;;;;;4919362;29;20035;-77
2023/04/29 13:02:42;;;;;;;17.08;15.27;;;;;;;;;;4919658;29;20111;-77
2023/04/29 13:05:08;;;;;;;15.57;13.32;;;;;;;;;;4919638;29;20107;-78
2023/04/29 13:07:33;;;;;;;17.15;15.02;;;;;;;;;;4919547;29;20444;-78
2023/04/29 13:09:59;;;;;;;13.82;12.25;;;;;;;;;;4919190;29;20116;-77
2023/04/29 13:12:24;;;;;;;20.15;15.45;;;;;;;;;;4919496;29;20213;-79
2023/04/29 13:14:50;;;;;;;17.77;14.13;;;;;;;;;;4919319;29;20055;-76
2023/04/29 13:17:16;;;;;;;15.15;12.23;;;;;;;;;;4919169;29;20036;-77
2023/04/29 13:19:43;;;;;;;14.73;10.13;;;;;;;;;;4919097;29;20035;-77
2023/04/29 13:22:08;;;;;;;20.20;14.57;;;;;;;;;;4930732;29;20390;-78
2023/04/29 13:24:35;;;;;;;17.58;13.10;;;;;;;;;;4938048;29;20043;-78
2023/04/29 13:27:01;;;;;;;14.85;12.13;;;;;;;;;;4920792;29;20027;-78
2023/04/29 13:29:27;;;;;;;18.58;15.20;;;;;;;;;;4937972;29;20047;-77
2023/04/29 13:31:52;;;;;;;21.10;17.30;;;;;;;;;;4937893;29;20066;-81
2023/04/29 13:34:19;;;;;;;21.85;15.55;;;;;;;;;;4937940;29;20459;-78
2023/04/29 13:36:45;;;;;;;25.42;16.90;;;;;;;;;;4937854;29;20043;-78
2023/04/29 13:39:10;;;;;;;27.52;18.50;;;;;;;;;;4937177;29;20027;-78
2023/04/29 13:41:36;;;;;;;22.38;16.98;;;;;;;;;;4928261;29;20090;-80
2023/04/29 13:44:01;;;;;;;22.08;16.92;;;;;;;;;;4921757;29;20064;-77
2023/04/29 13:46:27;;;;;;;22.15;17.13;;;;;;;;;;4918679;29;20032;-77
2023/04/29 13:48:53;;;;;;;20.15;16.52;;;;;;;;;;4918788;29;20375;-77
2023/04/29 13:51:18;;;;;;;15.13;10.93;;;;;;;;;;4918639;29;20028;-77
2023/04/29 13:53:44;;;;;;;12.75;9.70;;;;;;;;;;4918708;29;20432;-75
2023/04/29 13:56:09;;;;;;;14.88;10.80;;;;;;;;;;4918340;29;20059;-76
2023/04/29 13:58:35;;;;;;;20.23;15.63;;;;;;;;;;4918501;29;20388;-76
2023/04/29 14:01:00;;;;;;;17.00;12.93;;;;;;;;;;4918735;29;20034;-76
2023/04/29 14:03:26;;;;;;;23.33;17.05;;;;;;;;;;4918319;29;20028;-74
2023/04/29 14:05:52;;;;;;;20.40;14.60;;;;;;;;;;4918450;29;20551;-75
2023/04/29 14:08:17;;;;;;;18.83;14.73;;;;;;;;;;4918296;29;20025;-75
2023/04/29 14:10:43;;;;;;;16.38;13.43;;;;;;;;;;4918188;29;20024;-74
2023/04/29 14:13:08;;;;;;;20.00;14.90;;;;;;;;;;4918137;29;20031;-75
2023/04/29 14:15:34;;;;;;;23.77;18.02;;;;;;;;;;4918099;29;20127;-75
2023/04/29 14:18:00;;;;;;;20.38;15.95;;;;;;;;;;4918124;29;20059;-75
2023/04/29 14:20:25;;;;;;;19.60;16.35;;;;;;;;;;4917879;29;20031;-78
2023/04/29 14:22:51;;;;;;;19.95;15.32;;;;;;;;;;4931024;29;20039;-77
2023/04/29 14:25:16;;;;;;;17.95;12.65;;;;;;;;;;4929021;29;20044;-76
2023/04/29 14:27:42;;;;;;;16.52;13.18;;;;;;;;;;4936917;29;20027;-75
2023/04/29 14:30:08;;;;;;;16.83;13.45;;;;;;;;;;4937961;29;20042;-76
2023/04/29 14:32:33;;;;;;;24.20;18.85;;;;;;;;;;4936895;29;20099;-74
2023/04/29 14:34:58;;;;;;;18.80;15.98;;;;;;;;;;4936861;29;20603;-76
2023/04/29 14:37:25;;;;;;;18.05;13.75;;;;;;;;;;4936932;29;20041;-76
2023/04/29 14:39:51;;;;;;;21.50;16.05;;;;;;;;;;4936671;29;20042;-76
2023/04/29 14:42:17;;;;;;;19.88;14.50;;;;;;;;;;4936744;29;20464;-76
2023/04/29 14:44:43;;;;;;;20.63;16.17;;;;;;;;;;4936953;29;20431;-78
2023/04/29 14:47:08;;;;;;;15.90;13.05;;;;;;;;;;4936890;29;20063;-74
2023/04/29 14:49:34;;;;;;;18.35;14.27;;;;;;;;;;4936904;29;20039;-75
2023/04/29 14:51:59;;;;;;;18.35;14.70;;;;;;;;;;4936311;29;20059;-75
2023/04/29 14:54:26;;;;;;;16.13;12.63;;;;;;;;;;4935259;29;20110;-73
2023/04/29 14:56:52;;;;;;;15.82;12.50;;;;;;;;;;4936249;29;20054;-74
2023/04/29 14:59:17;;;;;;;20.65;14.40;;;;;;;;;;4935246;29;20470;-75
2023/04/29 15:01:43;;;;;;;15.93;12.80;;;;;;;;;;4936244;29;20059;-74
2023/04/29 15:04:08;;;;;;;18.27;13.50;;;;;;;;;;4936525;29;20549;-79
2023/04/29 15:06:34;;;;;;;16.95;13.35;;;;;;;;;;4936558;29;20032;-78
2023/04/29 15:08:59;;;;;;;17.05;14.93;;;;;;;;;;4936481;29;20031;-76
2023/04/29 15:11:25;;;;;;;18.98;16.17;;;;;;;;;;4936256;29;20083;-76
2023/04/29 15:13:51;;;;;;;18.30;14.60;;;;;;;;;;4936569;29;20360;-76
2023/04/29 15:16:16;;;;;;;18.30;13.63;;;;;;;;;;4936302;29;20038;-75
2023/04/29 15:18:42;;;;;;;17.05;12.68;;;;;;;;;;4936456;29;20035;-75
2023/04/29 15:21:07;;;;;;;18.70;14.60;;;;;;;;;;4936314;29;20035;-80
2023/04/29 15:23:33;;;;;;;16.88;13.23;;;;;;;;;;4936216;29;20040;-79
2023/04/29 15:25:59;;;;;;;17.50;14.27;;;;;;;;;;4936018;29;20031;-77
2023/04/29 15:28:24;;;;;;;18.83;14.90;;;;;;;;;;4936425;29;20462;-75
2023/04/29 15:30:50;;;;;;;14.52;12.40;;;;;;;;;;4936367;29;20058;-79
2023/04/29 15:33:16;;;;;;;15.75;11.68;;;;;;;;;;4923385;29;20036;-79
2023/04/29 15:35:41;;;;;;;17.13;14.57;;;;;;;;;;4940235;29;20413;-85
2023/04/29 15:38:07;;;;;;;23.85;12.40;;;;;;;;;;4940255;29;20024;-85
2023/04/29 15:40:32;;;;;;;23.10;11.38;;;;;;;;;;4939961;29;20107;-75
2023/04/29 15:42:58;;;;;;;13.32;9.93;;;;;;;;;;4940082;29;20039;-76
2023/04/29 15:45:23;;;;;;;16.02;12.88;;;;;;;;;;4940065;29;20020;-82
2023/04/29 15:47:49;;;;;;;82.30;16.98;;;;;;;;;;4940273;29;20024;-78
2023/04/29 15:50:15;;;;;;;17.27;12.98;;;;;;;;;;4940250;29;20038;-80
2023/04/29 15:52:40;;;;;;;16.85;14.02;;;;;;;;;;4939901;29;20032;-77
2023/04/29 15:55:06;;;;;;;17.42;13.60;;;;;;;;;;4940315;29;20032;-77
2023/04/29 15:57:33;;;;;;;16.88;12.35;;;;;;;;;;4939827;29;20035;-79
2023/04/29 15:59:59;;;;;;;16.92;13.50;;;;;;;;;;4940194;29;20048;-80
2023/04/29 16:02:24;;;;;;;21.33;14.88;;;;;;;;;;4924229;29;20099;-78
2023/04/29 16:04:50;;;;;;;15.80;11.10;;;;;;;;;;4920918;29;20024;-79
2023/04/29 16:07:16;;;;;;;17.10;13.27;;;;;;;;;;4928922;29;20038;-78
2023/04/29 16:09:42;;;;;;;16.40;13.57;;;;;;;;;;4928284;29;20032;-80
2023/04/29 16:12:10;;;;;;;15.27;11.27;;;;;;;;;;4928923;29;20035;-78
2023/04/29 16:14:35;;;;;;;15.13;11.80;;;;;;;;;;4928514;29;20078;-79
2023/04/29 16:17:01;;;;;;;16.25;12.60;;;;;;;;;;4928808;29;20471;-77
2023/04/29 16:19:27;;;;;;;14.27;11.52;;;;;;;;;;4928506;29;20096;-77
2023/04/29 16:21:52;;;;;;;14.40;11.60;;;;;;;;;;4927731;29;20024;-78
2023/04/29 16:24:17;;;;;;;14.35;11.65;;;;;;;;;;4928715;29;20040;-79
2023/04/29 16:26:43;;;;;;;19.58;13.85;;;;;;;;;;4928245;29;20111;-78
2023/04/29 16:29:11;;;;;;;21.05;15.32;;;;;;;;;;4927759;29;20448;-78
2023/04/29 16:31:37;;;;;;;16.73;12.13;;;;;;;;;;4928433;29;20067;-77
2023/04/29 16:34:02;;;;;;;17.13;12.07;;;;;;;;;;4927452;29;20416;-77
2023/04/29 16:36:28;;;;;;;18.85;14.23;;;;;;;;;;4928089;29;20038;-77
2023/04/29 16:38:53;;;;;;;21.75;15.63;;;;;;;;;;4927960;29;20019;-77
2023/04/29 16:41:20;;;;;;;15.15;12.85;;;;;;;;;;4927988;29;20083;-75
2023/04/29 16:43:45;;;;;;;19.40;13.15;;;;;;;;;;4928040;29;20486;-75
2023/04/29 16:46:11;;;;;;;17.10;14.65;;;;;;;;;;4928181;29;20028;-75
2023/04/29 16:48:36;;;;;;;17.27;12.90;;;;;;;;;;4930247;29;20546;-77
2023/04/29 16:51:03;;;;;;;16.90;12.10;;;;;;;;;;4929208;29;20494;-77
2023/04/29 16:53:28;;;;;;;17.55;13.57;;;;;;;;;;4910222;29;20487;-77
2023/04/29 16:55:54;;;;;;;17.08;13.68;;;;;;;;;;4927793;29;20040;-78
2023/04/29 16:58:20;;;;;;;17.55;12.38;;;;;;;;;;4927949;29;20031;-77
2023/04/29 17:00:46;;;;;;;14.98;12.30;;;;;;;;;;4927789;29;20440;-77
2023/04/29 17:03:13;;;;;;;14.20;10.63;;;;;;;;;;4910545;29;20055;-78
2023/04/29 17:05:38;;;;;;;14.50;12.27;;;;;;;;;;4927878;29;20050;-78
2023/04/29 17:08:04;;;;;;;17.88;14.13;;;;;;;;;;4927553;29;20464;-79
2023/04/29 17:10:29;;;;;;;18.30;13.57;;;;;;;;;;4928128;29;20099;-79
2023/04/29 17:12:55;;;;;;;15.25;12.15;;;;;;;;;;4926907;29;20034;-78
2023/04/29 17:15:20;;;;;;;15.50;11.35;;;;;;;;;;4927770;29;20060;-77
2023/04/29 17:17:46;;;;;;;15.35;13.10;;;;;;;;;;4927958;29;20031;-78
2023/04/29 17:20:12;;;;;;;17.90;15.10;;;;;;;;;;4926340;29;20038;-78
2023/04/29 17:22:39;;;;;;;19.42;13.32;;;;;;;;;;4919188;29;20464;-78
2023/04/29 17:25:07;;;;;;;15.93;13.45;;;;;;;;;;4919191;29;20052;-78
2023/04/29 17:27:32;;;;;;;16.17;13.35;;;;;;;;;;4919029;29;20062;-80
2023/04/29 17:29:58;;;;;;;13.75;10.60;;;;;;;;;;4918912;29;20075;-80
2023/04/29 17:32:27;;;;;;;14.23;12.10;;;;;;;;;;4918987;29;20028;-78
2023/04/29 17:34:57;;;;;;;14.55;11.52;;;;;;;;;;4919005;29;20032;-77
2023/04/29 17:37:26;;;;;;;15.40;11.48;;;;;;;;;;4918803;29;20043;-80
2023/04/29 17:39:51;;;;;;;14.07;10.65;;;;;;;;;;4919090;29;20415;-80
2023/04/29 17:42:19;;;;;;;9.82;8.80;;;;;;;;;;4918749;29;20020;-78
2023/04/29 17:44:45;;;;;;;9.75;8.48;;;;;;;;;;4919048;29;20468;-77
2023/04/29 17:47:11;;;;;;;9.98;8.75;;;;;;;;;;4918900;29;20043;-82
2023/04/29 17:49:37;;;;;;;8.50;7.68;;;;;;;;;;4918736;29;20084;-81
2023/04/29 17:52:03;;;;;;;9.75;8.75;;;;;;;;;;4918543;29;20111;-82
2023/04/29 17:54:29;;;;;;;10.73;9.57;;;;;;;;;;4918058;29;20020;-81
2023/04/29 17:56:55;;;;;;;10.45;9.13;;;;;;;;;;4918562;29;20112;-82
2023/04/29 17:59:21;;;;;;;9.70;8.02;;;;;;;;;;4918372;29;20032;-81
2023/04/29 18:01:46;;;;;;;8.77;7.88;;;;;;;;;;4918557;29;20031;-82
2023/04/29 18:04:12;;;;;;;11.63;9.05;;;;;;;;;;4926970;29;20487;-78
2023/04/29 18:06:37;;;;;;;11.93;9.63;;;;;;;;;;4937301;29;20067;-78
2023/04/29 18:09:04;;;;;;;13.82;11.27;;;;;;;;;;4937370;29;20031;-79
2023/04/29 18:11:30;;;;;;;15.05;11.27;;;;;;;;;;4937399;29;20091;-79
2023/04/29 18:13:55;;;;;;;14.15;11.20;;;;;;;;;;4937564;29;20091;-78
2023/04/29 18:16:21;;;;;;;11.00;9.25;;;;;;;;;;4937272;29;20118;-78
2023/04/29 18:18:50;;;;;;;11.40;9.30;;;;;;;;;;4937055;29;20094;-78
2023/04/29 18:21:21;;;;;;;12.10;9.27;;;;;;;;;;4936990;29;20028;-79
2023/04/29 18:23:47;;;;;;;14.93;10.88;;;;;;;;;;4936902;29;20052;-79
2023/04/29 18:26:13;;;;;;;14.65;12.10;;;;;;;;;;4937042;29;20368;-79
2023/04/29 18:28:38;;;;;;;17.67;13.07;;;;;;;;;;4937136;29;20019;-79
2023/04/29 18:31:03;;;;;;;13.15;11.48;;;;;;;;;;4937179;29;20036;-78
2023/04/29 18:33:30;;;;;;;14.75;12.25;;;;;;;;;;4937431;29;20031;-78
2023/04/29 18:35:55;;;;;;;12.52;10.70;;;;;;;;;;4936682;29;20034;-78
2023/04/29 18:38:21;;;;;;;11.95;10.18;;;;;;;;;;4937115;29;20027;-78
2023/04/29 18:40:47;;;;;;;10.52;9.43;;;;;;;;;;4936880;29;20027;-77
2023/04/29 18:43:16;;;;;;;11.10;9.07;;;;;;;;;;4936761;29;20060;-77
2023/04/29 18:45:45;;;;;;;10.10;8.93;;;;;;;;;;4937040;29;20042;-77
2023/04/29 18:48:11;;;;;;;9.17;8.27;;;;;;;;;;4936901;29;20095;-76
2023/04/29 18:50:40;;;;;;;9.95;8.43;;;;;;;;;;4936875;29;20024;-77
2023/04/29 18:53:06;;;;;;;12.98;8.43;;;;;;;;;;4936534;29;20032;-76
2023/04/29 18:55:32;;;;;;;9.90;7.70;;;;;;;;;;4936714;29;20391;-77
2023/04/29 18:57:57;;;;;;;11.63;9.27;;;;;;;;;;4936802;29;20028;-77
2023/04/29 19:00:24;;;;;;;12.68;9.95;;;;;;;;;;4937000;29;20471;-76
